Eurocargo Venezia — IBKS — position and weather

sailwx.info

Track history (hours):
 
Tides and Currents Weather Stations Pressure Air Temp Water Temp Dewpoint Dewpoint Depression Visibility Wind Speed Wind Dir Waves Ship Positions

Eurocargo Venezia

Last reported at 2014-Sep-23 11:34 UTC. Time now 2014-Sep-23 12:25 UTC.
Position N 43°28' E 010°12'.

Length 200 m; draft 7.1 m.

Type: Ship (hazmat cat A). MMSI: 247297200.

Date/timePositionNaut miles runAvg speedWind from/ knotsBaromVisibWave heightAir tempDewpointWater temp
2014-Sep-23 11:34N 43°28' E 010°12'8 7.8
2014-Sep-23 10:33N 43°35' E 010°18'0 0.0
2014-Sep-23 09:31N 43°35' E 010°18'0 0.0
2014-Sep-23 08:31N 43°35' E 010°18'0 0.0
2014-Sep-23 07:31N 43°35' E 010°18'0 0.0
2014-Sep-23 06:31N 43°35' E 010°18'0 0.0
2014-Sep-23 05:31N 43°35' E 010°18'1 0.6
2014-Sep-23 04:33N 43°34' E 010°18'6 5.5
2014-Sep-23 03:33N 43°30' E 010°13'6 6.2
2014-Sep-23 02:33N 43°30' E 010°05'9 9.0
2014-Sep-23 01:33N 43°33' E 009°53'1918.5
2014-Sep-23 00:33N 43°48' E 009°37'1817.8
2014-Sep-22 23:33N 44°01' E 009°20'1817.6
2014-Sep-22 22:33N 44°14' E 009°05'1312.9
2014-Sep-22 21:33N 44°24' E 008°53'0 0.0
2014-Sep-22 20:25N 44°24' E 008°53'0 0.0
2014-Sep-22 19:31N 44°24' E 008°53'0 0.0
2014-Sep-22 18:31N 44°24' E 008°53'0 0.0
2014-Sep-22 17:31N 44°24' E 008°53'0 0.0
2014-Sep-22 16:31N 44°24' E 008°53'0 0.0
2014-Sep-22 15:31N 44°24' E 008°53'0 0.0
2014-Sep-22 14:31N 44°24' E 008°53'0 0.0
2014-Sep-22 13:31N 44°24' E 008°53'0 0.0
2014-Sep-22 12:31N 44°24' E 008°53'0 0.0
2014-Sep-22 11:31N 44°24' E 008°53'0 0.0
2014-Sep-22 10:31N 44°24' E 008°53'0 0.3
2014-Sep-22 09:33N 44°24' E 008°54'9 9.1
2014-Sep-22 08:33N 44°17' E 009°02'1817.8
2014-Sep-22 07:33N 44°04' E 009°18'1817.9
2014-Sep-22 06:33N 43°50' E 009°34'1818.1
2014-Sep-22 05:33N 43°37' E 009°50'1717.3
2014-Sep-22 04:33N 43°23' E 010°06'1717.1
2014-Sep-22 03:33N 43°09' E 010°18'21517.9
2014-Sep-21 15:32N 40°23' E 013°22'245 9.4
2014-Sep-20 13:33N 36°31' E 015°06'1818.5
2014-Sep-20 12:34N 36°16' E 014°52'1918.8
2014-Sep-20 11:34N 36°01' E 014°39'1010.4
2014-Sep-20 10:33N 35°53' E 014°31'0 0.0
2014-Sep-20 09:33N 35°53' E 014°31'0 0.0
2014-Sep-20 08:33N 35°53' E 014°31'0 0.0
2014-Sep-20 07:32N 35°53' E 014°31'1 0.3
2014-Sep-20 03:16N 35°54' E 014°32'4515.8
2014-Sep-20 00:25N 36°31' E 015°04'244 9.0
2014-Sep-18 21:21N 40°21' E 013°22'21017.8
2014-Sep-18 09:33N 43°04' E 010°24'1817.8
2014-Sep-18 08:34N 43°21' E 010°15'1212.2
2014-Sep-18 07:33N 43°33' E 010°17'2 2.0
2014-Sep-18 06:33N 43°35' E 010°18'0 0.0
2014-Sep-18 05:33N 43°35' E 010°18'0 0.0
2014-Sep-18 04:33N 43°35' E 010°18'0 0.0
2014-Sep-18 03:33N 43°35' E 010°18'0 0.0
2014-Sep-18 02:33N 43°35' E 010°18'0 0.0
2014-Sep-18 01:33N 43°35' E 010°18'1 0.6
2014-Sep-18 00:33N 43°34' E 010°18'9 9.1
2014-Sep-17 23:33N 43°30' E 010°08'1818.2
2014-Sep-17 22:33N 43°40' E 009°47'1818.5
2014-Sep-17 21:33N 43°53' E 009°29'1817.9
2014-Sep-17 20:33N 44°06' E 009°12'1818.2
2014-Sep-17 19:33N 44°21' E 008°58'5 4.3
2014-Sep-17 18:31N 44°24' E 008°53'0 0.0
2014-Sep-17 17:31N 44°24' E 008°53'0 0.0
2014-Sep-17 16:22N 44°24' E 008°53'0 0.0
2014-Sep-17 15:31N 44°24' E 008°53'0 0.0
2014-Sep-17 14:31N 44°24' E 008°53'0 0.0
2014-Sep-17 13:31N 44°24' E 008°53'0 0.0
2014-Sep-17 12:31N 44°24' E 008°53'0 0.0
2014-Sep-17 11:31N 44°24' E 008°53'0 0.3
2014-Sep-17 10:33N 44°24' E 008°54'9 9.3
2014-Sep-17 09:33N 44°17' E 009°02'1818.5
2014-Sep-17 08:34N 44°03' E 009°19'1918.6
2014-Sep-17 07:34N 43°49' E 009°36'1818.3
2014-Sep-17 06:34N 43°35' E 009°52'1817.9
2014-Sep-17 05:34N 43°22' E 010°08'1818.3
2014-Sep-17 04:34N 43°05' E 010°20'1918.4
2014-Sep-17 03:33N 42°49' E 010°33'42913.2
2014-Sep-15 19:03N 36°38' E 015°11'1020.2
2014-Sep-15 18:33N 36°29' E 015°04'2020.1
2014-Sep-15 17:33N 36°14' E 014°49'2019.9
2014-Sep-15 16:33N 35°57' E 014°35'6 3.8
2014-Sep-15 15:07N 35°53' E 014°31'0 0.0
2014-Sep-15 14:31N 35°53' E 014°31'0 0.0
2014-Sep-15 13:28N 35°53' E 014°31'0 0.0
2014-Sep-15 12:16N 35°53' E 014°31'0 0.0
2014-Sep-15 11:28N 35°53' E 014°31'0 0.0
2014-Sep-15 10:31N 35°53' E 014°31'0 0.0
2014-Sep-15 09:31N 35°53' E 014°31'1 0.2
2014-Sep-15 03:33N 35°54' E 014°32'1211.9
2014-Sep-15 02:34N 36°05' E 014°25'1716.7
2014-Sep-15 01:34N 36°15' E 014°09'1717.1
2014-Sep-15 00:34N 36°27' E 013°53'2117.8
2014-Sep-14 23:24N 36°40' E 013°33'1517.3
2014-Sep-14 22:33N 36°49' E 013°20'1717.1
2014-Sep-14 21:33N 36°60' E 013°03'40316.8
2014-Sep-13 21:33N 43°10' E 009°36'1717.0
2014-Sep-13 20:33N 43°26' E 009°29'1717.4
2014-Sep-13 19:33N 43°42' E 009°20'1717.4
2014-Sep-13 18:33N 43°59' E 009°11'1717.3
2014-Sep-13 17:33N 44°14' E 009°01'1211.5
2014-Sep-13 16:33N 44°24' E 008°53'0 0.0
2014-Sep-13 15:31N 44°24' E 008°53'0 0.0
2014-Sep-13 14:31N 44°24' E 008°53'0 0.0
2014-Sep-13 13:31N 44°24' E 008°53'0 0.0
2014-Sep-13 12:31N 44°24' E 008°53'  
Track history (hours):
 
Tides and Currents Weather Stations Pressure Air Temp Water Temp Dewpoint Dewpoint Depression Visibility Wind Speed Wind Dir Waves Ship Positions

Eurocargo Venezia

Last reported at 2014-Sep-23 11:34 UTC. Time now 2014-Sep-23 12:25 UTC.
Position N 43°28' E 010°12'.

Length 200 m; draft 7.1 m.

Type: Ship (hazmat cat A). MMSI: 247297200.

Date/timePositionNaut miles runAvg speedWind from/ knotsBaromVisibWave heightAir tempDewpointWater temp
2014-Sep-23 11:34N 43°28' E 010°12'8 7.8
2014-Sep-23 10:33N 43°35' E 010°18'0 0.0
2014-Sep-23 09:31N 43°35' E 010°18'0 0.0
2014-Sep-23 08:31N 43°35' E 010°18'0 0.0
2014-Sep-23 07:31N 43°35' E 010°18'0 0.0
2014-Sep-23 06:31N 43°35' E 010°18'0 0.0
2014-Sep-23 05:31N 43°35' E 010°18'1 0.6
2014-Sep-23 04:33N 43°34' E 010°18'6 5.5
2014-Sep-23 03:33N 43°30' E 010°13'6 6.2
2014-Sep-23 02:33N 43°30' E 010°05'9 9.0
2014-Sep-23 01:33N 43°33' E 009°53'1918.5
2014-Sep-23 00:33N 43°48' E 009°37'1817.8
2014-Sep-22 23:33N 44°01' E 009°20'1817.6
2014-Sep-22 22:33N 44°14' E 009°05'1312.9
2014-Sep-22 21:33N 44°24' E 008°53'0 0.0
2014-Sep-22 20:25N 44°24' E 008°53'0 0.0
2014-Sep-22 19:31N 44°24' E 008°53'0 0.0
2014-Sep-22 18:31N 44°24' E 008°53'0 0.0
2014-Sep-22 17:31N 44°24' E 008°53'0 0.0
2014-Sep-22 16:31N 44°24' E 008°53'0 0.0
2014-Sep-22 15:31N 44°24' E 008°53'0 0.0
2014-Sep-22 14:31N 44°24' E 008°53'0 0.0
2014-Sep-22 13:31N 44°24' E 008°53'0 0.0
2014-Sep-22 12:31N 44°24' E 008°53'0 0.0
2014-Sep-22 11:31N 44°24' E 008°53'0 0.0
2014-Sep-22 10:31N 44°24' E 008°53'0 0.3
2014-Sep-22 09:33N 44°24' E 008°54'9 9.1
2014-Sep-22 08:33N 44°17' E 009°02'1817.8
2014-Sep-22 07:33N 44°04' E 009°18'1817.9
2014-Sep-22 06:33N 43°50' E 009°34'1818.1
2014-Sep-22 05:33N 43°37' E 009°50'1717.3
2014-Sep-22 04:33N 43°23' E 010°06'1717.1
2014-Sep-22 03:33N 43°09' E 010°18'21517.9
2014-Sep-21 15:32N 40°23' E 013°22'245 9.4
2014-Sep-20 13:33N 36°31' E 015°06'1818.5
2014-Sep-20 12:34N 36°16' E 014°52'1918.8
2014-Sep-20 11:34N 36°01' E 014°39'1010.4
2014-Sep-20 10:33N 35°53' E 014°31'0 0.0
2014-Sep-20 09:33N 35°53' E 014°31'0 0.0
2014-Sep-20 08:33N 35°53' E 014°31'0 0.0
2014-Sep-20 07:32N 35°53' E 014°31'1 0.3
2014-Sep-20 03:16N 35°54' E 014°32'4515.8
2014-Sep-20 00:25N 36°31' E 015°04'244 9.0
2014-Sep-18 21:21N 40°21' E 013°22'21017.8
2014-Sep-18 09:33N 43°04' E 010°24'1817.8
2014-Sep-18 08:34N 43°21' E 010°15'1212.2
2014-Sep-18 07:33N 43°33' E 010°17'2 2.0
2014-Sep-18 06:33N 43°35' E 010°18'0 0.0
2014-Sep-18 05:33N 43°35' E 010°18'0 0.0
2014-Sep-18 04:33N 43°35' E 010°18'0 0.0
2014-Sep-18 03:33N 43°35' E 010°18'0 0.0
2014-Sep-18 02:33N 43°35' E 010°18'0 0.0
2014-Sep-18 01:33N 43°35' E 010°18'1 0.6
2014-Sep-18 00:33N 43°34' E 010°18'9 9.1
2014-Sep-17 23:33N 43°30' E 010°08'1818.2
2014-Sep-17 22:33N 43°40' E 009°47'1818.5
2014-Sep-17 21:33N 43°53' E 009°29'1817.9
2014-Sep-17 20:33N 44°06' E 009°12'1818.2
2014-Sep-17 19:33N 44°21' E 008°58'5 4.3
2014-Sep-17 18:31N 44°24' E 008°53'0 0.0
2014-Sep-17 17:31N 44°24' E 008°53'0 0.0
2014-Sep-17 16:22N 44°24' E 008°53'0 0.0
2014-Sep-17 15:31N 44°24' E 008°53'0 0.0
2014-Sep-17 14:31N 44°24' E 008°53'0 0.0
2014-Sep-17 13:31N 44°24' E 008°53'0 0.0
2014-Sep-17 12:31N 44°24' E 008°53'0 0.0
2014-Sep-17 11:31N 44°24' E 008°53'0 0.3
2014-Sep-17 10:33N 44°24' E 008°54'9 9.3
2014-Sep-17 09:33N 44°17' E 009°02'1818.5
2014-Sep-17 08:34N 44°03' E 009°19'1918.6
2014-Sep-17 07:34N 43°49' E 009°36'1818.3
2014-Sep-17 06:34N 43°35' E 009°52'1817.9
2014-Sep-17 05:34N 43°22' E 010°08'1818.3
2014-Sep-17 04:34N 43°05' E 010°20'1918.4
2014-Sep-17 03:33N 42°49' E 010°33'42913.2
2014-Sep-15 19:03N 36°38' E 015°11'1020.2
2014-Sep-15 18:33N 36°29' E 015°04'2020.1
2014-Sep-15 17:33N 36°14' E 014°49'2019.9
2014-Sep-15 16:33N 35°57' E 014°35'6 3.8
2014-Sep-15 15:07N 35°53' E 014°31'0 0.0
2014-Sep-15 14:31N 35°53' E 014°31'0 0.0
2014-Sep-15 13:28N 35°53' E 014°31'0 0.0
2014-Sep-15 12:16N 35°53' E 014°31'0 0.0
2014-Sep-15 11:28N 35°53' E 014°31'0 0.0
2014-Sep-15 10:31N 35°53' E 014°31'0 0.0
2014-Sep-15 09:31N 35°53' E 014°31'1 0.2
2014-Sep-15 03:33N 35°54' E 014°32'1211.9
2014-Sep-15 02:34N 36°05' E 014°25'1716.7
2014-Sep-15 01:34N 36°15' E 014°09'1717.1
2014-Sep-15 00:34N 36°27' E 013°53'2117.8
2014-Sep-14 23:24N 36°40' E 013°33'1517.3
2014-Sep-14 22:33N 36°49' E 013°20'1717.1
2014-Sep-14 21:33N 36°60' E 013°03'40316.8
2014-Sep-13 21:33N 43°10' E 009°36'1717.0
2014-Sep-13 20:33N 43°26' E 009°29'1717.4
2014-Sep-13 19:33N 43°42' E 009°20'1717.4
2014-Sep-13 18:33N 43°59' E 009°11'1717.3
2014-Sep-13 17:33N 44°14' E 009°01'1211.5
2014-Sep-13 16:33N 44°24' E 008°53'0 0.0
2014-Sep-13 15:31N 44°24' E 008°53'0 0.0
2014-Sep-13 14:31N 44°24' E 008°53'0 0.0
2014-Sep-13 13:31N 44°24' E 008°53'0 0.0
2014-Sep-13 12:31N 44°24' E 008°53'  

Dump ship's entire track history